ADDS METAR Data INFO
IDs: Format: Raw Decoded Include TAF

Data at: 0339 UTC 28 Jun 2017

KAFN 280336Z AUTO 00000KT 10SM FEW001 11/11 A2999 RMK AO2 T01060106 TSNO
KAFN 280252Z AUTO 00000KT 10SM CLR 11/11 A2999 RMK AO2 SLP161 60003 T01110111 53007 TSNO
KAFN 280152Z AUTO 18003KT 10SM CLR 13/12 A2998 RMK AO2 SLP157 T01280122 TSNO
KAFN 280052Z AUTO 20005KT 10SM CLR 13/12 A2996 RMK AO2 RAE15 SLP149 P0003 T01330122 TSNO
KAFN 272352Z AUTO VRB05G18KT 10SM +RA FEW028 BKN039 OVC055 14/13 A2997 RMK AO2 RAB31 SLP153 P0014 60015 T01440128 10211 20144 53022 TSNO
KAFN 272252Z AUTO 30007KT 10SM FEW033 SCT044 BKN090 19/13 A2990 RMK AO2 SLP127 T01890133 TSNO
KAFN 272152Z AUTO 20009G16KT 180V240 10SM CLR 21/12 A2989 RMK AO2 SLP126 T02060117 TSNO
KAFN 272052Z AUTO 19009KT 10SM FEW110 21/11 A2990 RMK AO2 SLP128 60001 T02060106 56016 TSNO
KAFN 271952Z AUTO 20009KT 10SM SCT085 19/14 A2991 RMK AO2 RAB01E42 SLP133 P0001 T01940144 TSNO
KAFN 271852Z AUTO 21007KT 10SM FEW090 FEW120 19/14 A2993 RMK AO2 RAB26E37 SLP140 P0000 T01940139 TSNO
KAFN 271752Z AUTO 22006KT 10SM FEW046 SCT060 OVC100 19/16 A2995 RMK AO2 RAB11E51 SLP144 P0003 60003 T01890161 10206 20139 58021 TSNO
KAFN 271652Z AUTO 21007KT 10SM FEW065 FEW085 SCT110 20/13 A2997 RMK AO2 SLP151 T02000133 TSNO
KAFN 271552Z AUTO 22004KT 10SM BKN070 18/14 A2999 RMK AO2 SLP160 T01830139 TSNO
KAFN 271452Z AUTO 21004KT 10SM FEW075 SCT100 SCT120 17/14 A3001 RMK AO2 SLP167 T01720139 58005 TSNO
KAFN 271352Z AUTO 21005KT 10SM SCT055 BKN110 16/13 A3004 RMK AO2 SLP177 T01610133 TSNO
KAFN 271252Z AUTO VRB05KT 10SM SCT060 OVC100 16/14 A3004 RMK AO2 SLP176 T01560139 TSNO
KAFN 271152Z AUTO VRB03KT 10SM SCT100 14/14 A3003 RMK AO2 SLP171 70022 T01440139 10144 20117 53007 TSNO
KAFN 271052Z AUTO 00000KT 10SM CLR 13/13 A3000 RMK AO2 SLP164 T01330133 TSNO
KAFN 270952Z AUTO 00000KT 10SM FEW080 12/12 A3001 RMK AO2 SLP165 T01220122 TSNO
KAFN 270852Z AUTO 00000KT 10SM OVC100 12/12 A3000 RMK AO2 SLP164 T01220122 56005 TSNO
KAFN 270752Z AUTO 00000KT 10SM CLR 12/12 A3001 RMK AO2 SLP166 T01170117 TSNO
KAFN 270652Z AUTO 00000KT 10SM CLR 12/12 A3001 RMK AO2 SLP166 T01220122 TSNO
KAFN 270552Z AUTO 00000KT 10SM FEW065 13/13 A3002 RMK AO2 SLP168 60022 T01280128 10183 20128 50006 TSNO
KAFN 270452Z AUTO 00000KT 10SM SCT060 OVC110 14/14 A3002 RMK AO2 RAB20E36 SLP170 P0002 T01390139 402330111 TSNO
KAFN 270352Z AUTO 00000KT 10SM FEW055 BKN075 OVC110 14/14 A3001 RMK AO2 SLP166 T01440144 TSNO
KAFN 270252Z AUTO 00000KT 10SM FEW060 BKN075 BKN100 14/14 A3000 RMK AO2 RAE36 SLP162 P0002 60020 T01390139 50002 TSNO
KAFN 270152Z AUTO 18005KT 10SM RA BKN045 OVC065 15/14 A3003 RMK AO2 SLP172 P0017 T01500139 TSNO
KAFN 270052Z AUTO VRB04KT 10SM RA BKN060 OVC080 17/13 A3003 RMK AO2 RAE07B44 SLP173 P0001 T01670128 TSNO
KAFN 262352Z AUTO 16006KT 10SM -RA BKN070 OVC090 17/13 A3000 RMK AO2 RAB47 SLP160 P0000 60000 T01720133 10233 20172 53010 TSNO
KAFN 262252Z AUTO 00000KT 10SM SCT055 OVC110 20/12 A2997 RMK AO2 SLP152 T02000122 TSNO
KAFN 262152Z AUTO 32005KT 10SM FEW060 SCT080 BKN100 22/11 A2997 RMK AO2 RAB28E42 SLP151 P0000 T02220106 TSNO
KAFN 262052Z AUTO VRB04KT 10SM SCT060 SCT080 BKN100 22/11 A2997 RMK AO2 SLP150 T02220106 56005 TSNO
KAFN 261952Z AUTO 24005KT 10SM BKN060 OVC085 22/11 A2997 RMK AO2 SLP149 T02170106 TSNO
KAFN 261852Z AUTO 30005KT 10SM FEW070 SCT090 22/10 A2997 RMK AO2 SLP151 T02220100 TSNO
KAFN 261752Z AUTO VRB04KT 10SM BKN090 22/10 A2998 RMK AO2 SLP153 T02220100 10222 20161 58008 TSNO
KAFN 261652Z AUTO VRB04KT 10SM SCT055 OVC080 21/10 A3000 RMK AO2 SLP159 T02060100 TSNO
KAFN 261552Z AUTO VRB04KT 10SM FEW048 BKN060 22/09 A3000 RMK AO2 SLP159 T02170094 TSNO


Page loaded:  03:39 UTC  |   08:39 PM Pacific  |   09:39 PM Mountain  |   10:39 PM Central  |   11:39 PM Eastern

 

ADVISORIES

FORECASTS

FORECASTS

OBSERVATIONS

USER TOOLS

ABOUT US